Los Angeles, Texas
Current Conditions -  °F | °C
As of 4:53 PM on Wednesday 17 Dec 2014 (Local Time) from KCOT Reporting Station
Overcast Overcast  
Wind Chill: 57°   Ceiling: 1200
Heat Index: 57°   Visibility: 10mi
Dew Point: 53°   Wind: 7mph
Humidity: 87%   Direction: 350°N
Pressure: 30.01"   Gusts: NA
Location:  28.4056°N, 99.0861°W
Report Text: KCOT 172253Z AUTO 35006KT 10SM OVC012 14/12 A3001 RMK AO2 SLP156 T01390117
Loading
Personal Weather Stations






























Interactive Weather Map New forecast layout! Learn more

10-Day Weather Forecast

Advertisements
Track Severe Weather on mobile